Data for 11/17/2013

Time Sea-Level Adjusted Pressure Absolute Pressure Temperature Relative Humidity Dew Point   
(mb) (inHg) (mb) (inHg) (C) (F) (%) (C) (F)
00:05 1004 29.65 833 24.6 -0.5 31.1 50 -9.7 14.5
00:10 1004 29.65 833 24.6 -1.1 30.1 53 -9.4 15.1
00:15 1004 29.65 833 24.6 -1.5 29.4 57 -9 15.8
00:20 1004 29.65 833 24.6 -1.5 29.4 56 -9.2 15.4
00:25 1004 29.65 833 24.6 -1.5 29.4 54 -9.6 14.6
00:30 1004 29.65 833 24.6 -1.3 29.7 52 -9.9 14.3
00:35 1004 29.65 834 24.63 -1.1 30 52 -9.9 14.3
00:40 1004 29.65 834 24.63 -1 30.2 51 -9.8 14.3
00:45 1004 29.65 834 24.63 -1 30.2 52 -9.7 14.5
00:50 1004 29.65 834 24.63 -1 30.1 52 -9.6 14.7
00:55 1005 29.68 834 24.63 -1.1 30.1 51 -10 14.1
01:00 1005 29.68 834 24.63 -1 30.3 49 -10.4 13.3
01:05 1005 29.68 834 24.63 -0.8 30.6 48 -10.5 13.2
01:10 1005 29.68 834 24.63 -0.8 30.5 50 -10.1 13.8
01:15 1005 29.68 834 24.63 -0.9 30.3 52 -9.7 14.6
01:20 1005 29.68 834 24.63 -1.1 29.9 54 -9.4 15.2
01:25 1005 29.68 834 24.63 -1.3 29.7 51 -10.1 13.8
01:30 1005 29.68 834 24.63 -1.2 29.8 51 -10.1 13.8
01:35 1005 29.68 834 24.63 -1.2 29.8 51 -10 13.9
01:40 1005 29.68 834 24.63 -1.3 29.7 52 -10 13.9
01:45 1005 29.68 834 24.63 -1.5 29.4 51 -10.3 13.5
01:50 1005 29.68 834 24.63 -1.6 29.1 51 -10.4 13.3
01:55 1005 29.68 834 24.63 -1.7 28.9 51 -10.6 12.9
02:00 1005 29.68 834 24.63 -1.7 29 49 -11.1 11.9
02:05 1005 29.68 834 24.63 -1.6 29.2 49 -11 12.2
02:10 1005 29.68 834 24.63 -1.7 28.9 50 -10.7 12.7
02:15 1005 29.68 835 24.66 -1.9 28.6 50 -10.9 12.4
02:20 1005 29.68 835 24.66 -2 28.5 51 -10.8 12.6
02:25 1005 29.68 835 24.66 -1.8 28.7 49 -11.2 11.9
02:30 1006 29.71 835 24.66 -1.6 29.1 47 -11.5 11.2
02:35 1006 29.71 835 24.66 -1.3 29.6 46 -11.6 11.1
02:40 1006 29.71 835 24.66 -1.3 29.6 46 -11.6 11.2
02:45 1006 29.71 835 24.66 -1.3 29.6 46 -11.7 11
02:50 1006 29.71 835 24.66 -1.5 29.4 46 -11.6 11.2
02:55 1006 29.71 835 24.66 -1.5 29.3 47 -11.5 11.2
03:00 1006 29.71 835 24.66 -1.4 29.6 46 -11.7 11
03:05 1006 29.71 835 24.66 -1.2 29.8 44 -12.1 10.2
03:10 1006 29.71 835 24.66 -1.1 29.9 44 -12.1 10.3
03:15 1006 29.71 835 24.66 -1.2 29.8 44 -11.9 10.5
03:20 1006 29.71 835 24.66 -1.4 29.4 46 -11.7 10.9
03:25 1006 29.71 835 24.66 -1.7 28.9 46 -11.9 10.5
03:30 1006 29.71 835 24.66 -1.9 28.5 48 -11.4 11.4
03:35 1006 29.71 835 24.66 -1.9 28.5 46 -12.2 10.1
03:40 1006 29.71 835 24.66 -1.6 29.1 46 -11.7 10.9
03:45 1006 29.71 836 24.69 -1.6 29.1 46 -11.8 10.7
03:50 1006 29.71 836 24.69 -1.7 29 45 -12.2 10.1
03:55 1006 29.71 836 24.69 -1.7 29 46 -11.7 10.9
04:00 1006 29.71 836 24.69 -1.8 28.8 47 -11.7 10.9
04:05 1006 29.71 836 24.69 -1.9 28.6 47 -11.8 10.7
04:10 1006 29.71 836 24.69 -1.8 28.8 45 -12.1 10.3
04:15 1006 29.71 836 24.69 -1.7 28.9 46 -12 10.4
04:20 1007 29.74 836 24.69 -1.8 28.8 46 -11.8 10.7
04:25 1007 29.74 836 24.69 -1.9 28.6 45 -12.2 10.1
04:30 1007 29.74 836 24.69 -1.9 28.6 46 -11.9 10.6
04:35 1007 29.74 836 24.69 -2.1 28.3 48 -11.6 11.2
04:40 1007 29.74 836 24.69 -2.1 28.3 47 -11.9 10.6
04:45 1007 29.74 836 24.69 -2 28.3 48 -11.7 10.9
04:50 1007 29.74 836 24.69 -2.1 28.2 48 -11.6 11.2
04:55 1007 29.74 836 24.69 -2.1 28.3 47 -11.9 10.6
05:00 1007 29.74 836 24.69 -2 28.4 48 -11.6 11.1
05:05 1007 29.74 836 24.69 -1.9 28.6 48 -11.6 11.2
05:10 1007 29.74 836 24.69 -1.8 28.7 49 -11.1 12
05:15 1007 29.74 836 24.69 -1.9 28.6 51 -10.7 12.8
05:20 1007 29.74 836 24.69 -2.1 28.3 52 -10.6 13
05:25 1007 29.74 837 24.72 -2.2 28 53 -10.6 13
05:30 1007 29.74 837 24.72 -2.1 28.2 53 -10.5 13.2
05:35 1007 29.74 837 24.72 -2.1 28.2 53 -10.4 13.3
05:40 1007 29.74 837 24.72 -2.1 28.3 54 -10.3 13.4
05:45 1008 29.77 837 24.72 -2 28.3 54 -10.2 13.6
05:50 1008 29.77 837 24.72 -2.1 28.3 54 -10.1 13.8
05:55 1008 29.77 837 24.72 -2.1 28.2 54 -10.2 13.6
06:00 1008 29.77 837 24.72 -2.1 28.1 54 -10.3 13.5
06:05 1008 29.77 837 24.72 -2.2 28 55 -10.2 13.7
06:10 1008 29.77 837 24.72 -2.2 28.1 52 -10.7 12.7
06:15 1008 29.77 837 24.72 -2 28.4 50 -11.1 12.1
06:20 1008 29.77 837 24.72 -2 28.4 50 -11 12.2
06:25 1008 29.77 837 24.72 -2.1 28.2 50 -11.2 11.9
06:30 1008 29.77 837 24.72 -2.1 28.1 50 -11.3 11.7
06:35 1008 29.77 837 24.72 -2.2 28.1 50 -11.3 11.7
06:40 1008 29.77 837 24.72 -2.3 27.9 52 -10.9 12.3
06:45 1008 29.77 837 24.72 -2.4 27.6 51 -11.2 11.9
06:50 1008 29.77 837 24.72 -2.5 27.5 49 -11.8 10.8
06:55 1008 29.77 837 24.72 -2.4 27.7 47 -12.1 10.2
07:00 1008 29.77 837 24.72 -2.2 28.1 47 -11.9 10.5
07:05 1008 29.77 837 24.72 -2.1 28.3 45 -12.4 9.7
07:10 1008 29.77 837 24.72 -1.8 28.7 45 -12.2 10
07:15 1008 29.77 837 24.72 -1.7 28.9 46 -11.9 10.6
07:20 1008 29.77 837 24.72 -1.7 28.9 47 -11.5 11.2
07:25 1008 29.77 837 24.72 -1.7 29 48 -11.3 11.7
07:30 1008 29.77 837 24.72 -1.3 29.6 46 -11.5 11.3
07:35 1008 29.77 838 24.75 -1 30.2 45 -11.4 11.5
07:40 1008 29.77 838 24.75 -1 30.2 47 -11.1 12.1
07:45 1008 29.77 838 24.75 -1.1 30.1 46 -11.2 11.8
07:50 1008 29.77 838 24.75 -1 30.2 47 -11 12.2
07:55 1008 29.77 838 24.75 -1.1 30 48 -10.7 12.8
08:00 1008 29.77 838 24.75 -1.3 29.6 50 -10.4 13.2
08:05 1008 29.77 838 24.75 -1.5 29.2 50 -10.6 12.9
08:10 1009 29.8 838 24.75 -1.7 29 50 -10.9 12.4
08:15 1009 29.8 838 24.75 -1.5 29.3 48 -11.2 11.8
08:20 1009 29.8 838 24.75 -1.4 29.4 47 -11.5 11.4
08:25 1009 29.8 838 24.75 -1.3 29.7 46 -11.4 11.5
08:30 1009 29.8 838 24.75 -1 30.2 44 -11.8 10.8
08:35 1009 29.8 838 24.75 -0.8 30.6 43 -11.7 10.9
08:40 1009 29.8 838 24.75 -0.7 30.7 43 -11.9 10.6
08:45 1009 29.8 838 24.75 -0.6 30.9 42 -12 10.4
08:50 1009 29.8 838 24.75 -0.7 30.8 44 -11.6 11.1
08:55 1009 29.8 838 24.75 -0.8 30.6 44 -11.6 11.1
09:00 1009 29.8 838 24.75 -0.8 30.5 44 -11.7 10.9
09:05 1009 29.8 838 24.75 -0.7 30.7 43 -11.9 10.5
09:10 1009 29.8 838 24.75 -0.6 30.9 42 -11.9 10.5
09:15 1009 29.8 838 24.75 -0.5 31 43 -11.5 11.3
09:20 1009 29.8 838 24.75 -0.5 31 43 -11.5 11.3
09:25 1009 29.8 838 24.75 -0.4 31.3 44 -11.1 12
09:30 1009 29.8 838 24.75 -0.3 31.5 43 -11.3 11.6
09:35 1009 29.8 839 24.78 -0.1 31.8 44 -11.1 12
09:40 1009 29.8 839 24.78 0 32 44 -11 12.3
09:45 1010 29.83 839 24.78 0.1 32.1 44 -10.7 12.7
09:50 1009 29.8 839 24.78 0.1 32.2 45 -10.5 13
09:55 1010 29.83 839 24.78 0.2 32.4 43 -11 12.2
10:00 1010 29.83 839 24.78 0.5 32.9 42 -11 12.2
10:05 1010 29.83 839 24.78 0.8 33.4 41 -11.2 11.8
10:10 1010 29.83 839 24.78 0.9 33.6 41 -11 12.3
10:15 1010 29.83 839 24.78 0.9 33.6 41 -10.9 12.5
10:20 1010 29.83 839 24.78 0.9 33.6 42 -10.8 12.6
10:25 1010 29.83 839 24.78 0.9 33.6 41 -10.8 12.5
10:30 1010 29.83 839 24.78 1 33.8 41 -10.9 12.4
10:35 1010 29.83 839 24.78 1.2 34.1 39 -11.5 11.4
10:40 1010 29.83 839 24.78 1.4 34.5 40 -11 12.3
10:45 1010 29.83 839 24.78 1.5 34.7 39 -11.1 12
10:50 1010 29.83 839 24.78 1.6 34.9 37 -11.7 10.9
10:55 1010 29.83 839 24.78 1.8 35.2 38 -11 12.2
11:00 1010 29.83 840 24.81 1.9 35.4 37 -11.2 11.8
11:05 1010 29.83 840 24.81 2.1 35.7 37 -11.3 11.7
11:10 1010 29.83 840 24.81 2.3 36.2 35 -11.7 11
11:15 1010 29.83 840 24.81 2.5 36.5 34 -11.8 10.8
11:20 1011 29.85 840 24.81 2.6 36.7 33 -12 10.4
11:25 1011 29.85 840 24.81 2.5 36.4 35 -11.5 11.2
11:30 1011 29.85 840 24.81 2.8 37.1 32 -12.4 9.7
11:35 1011 29.85 840 24.81 3 37.4 32 -12.2 10.1
11:40 1011 29.85 840 24.81 3.1 37.5 33 -11.8 10.7
11:45 1011 29.85 840 24.81 2.9 37.1 33 -11.7 10.9
11:50 1011 29.85 840 24.81 2.8 37.1 33 -11.8 10.7
11:55 1011 29.85 840 24.81 2.9 37.3 32 -12.1 10.1
12:00 1011 29.85 841 24.83 3 37.5 33 -11.9 10.5
12:05 1012 29.88 841 24.83 3.1 37.6 32 -12 10.3
12:10 1012 29.88 841 24.83 3.1 37.5 33 -11.7 10.9
12:15 1012 29.88 841 24.83 3.1 37.6 34 -11.2 11.8
12:20 1012 29.88 841 24.83 3.2 37.7 33 -11.5 11.3
12:25 1012 29.88 841 24.83 3.2 37.7 34 -11.4 11.5
12:30 1012 29.88 841 24.83 3.1 37.5 33 -11.8 10.7
12:35 1012 29.88 841 24.83 3 37.4 34 -11.5 11.2
12:40 1012 29.88 841 24.83 3.1 37.6 33 -11.7 10.9
12:45 1012 29.88 841 24.83 3 37.3 33 -11.9 10.6
12:50 1012 29.88 842 24.86 2.9 37.2 33 -11.8 10.8
12:55 1013 29.91 842 24.86 3 37.3 33 -11.7 11
13:00 1013 29.91 842 24.86 2.9 37.3 35 -11.2 11.8
13:05 1013 29.91 842 24.86 2.7 36.8 36 -10.9 12.4
13:10 1013 29.91 842 24.86 2.5 36.6 39 -10 14
13:15 1013 29.91 842 24.86 2.4 36.3 38 -10.4 13.3
13:20 1013 29.91 842 24.86 2.6 36.6 37 -10.7 12.8
13:25 1013 29.91 842 24.86 2.8 37 37 -10.6 12.8
13:30 1013 29.91 842 24.86 2.9 37.2 37 -10.6 12.9
13:35 1013 29.91 842 24.86 3 37.3 36 -10.6 12.9
13:40 1013 29.91 842 24.86 3 37.5 35 -11.1 12.1
13:45 1013 29.91 842 24.86 3 37.3 34 -11.3 11.7
13:50 1013 29.91 842 24.86 3 37.3 34 -11.5 11.2
13:55 1013 29.91 842 24.86 3.1 37.6 34 -11.5 11.4
14:00 1013 29.91 842 24.86 3.2 37.8 33 -11.4 11.4
14:05 1013 29.91 842 24.86 3.2 37.8 34 -11.3 11.7
14:10 1013 29.91 842 24.86 3.3 38 34 -11.2 11.9
14:15 1013 29.91 842 24.86 3.3 37.9 34 -11.2 11.9
14:20 1013 29.91 842 24.86 3.2 37.8 34 -11.3 11.6
14:25 1013 29.91 842 24.86 3.3 37.9 33 -11.5 11.2
14:30 1013 29.91 842 24.86 3.6 38.4 32 -11.6 11.2
14:35 1013 29.91 842 24.86 3.7 38.7 32 -11.5 11.3
14:40 1013 29.91 842 24.86 3.8 38.8 32 -11.6 11.2
14:45 1013 29.91 842 24.86 4 39.1 31 -11.7 10.9
14:50 1013 29.91 842 24.86 4 39.2 31 -11.7 11
14:55 1013 29.91 842 24.86 4.2 39.6 30 -11.8 10.8
15:00 1013 29.91 842 24.86 4.3 39.7 30 -11.8 10.8
15:05 1013 29.91 842 24.86 4.3 39.8 30 -11.6 11.1
15:10 1013 29.91 842 24.86 4.4 39.9 29 -12 10.4
15:15 1013 29.91 842 24.86 4.4 39.9 29 -12.2 10.1
15:20 1013 29.91 842 24.86 4.3 39.7 30 -11.8 10.8
15:25 1013 29.91 842 24.86 4.2 39.5 30 -11.9 10.5
15:30 1013 29.91 842 24.86 4.2 39.5 30 -11.9 10.6
15:35 1013 29.91 842 24.86 4.3 39.7 29 -12.2 10
15:40 1013 29.91 842 24.86 4.3 39.7 30 -12 10.4
15:45 1013 29.91 842 24.86 4.3 39.7 29 -12.2 10.1
15:50 1013 29.91 842 24.86 4.3 39.7 30 -11.9 10.6
15:55 1013 29.91 842 24.86 4.2 39.6 31 -11.6 11.2
16:00 1013 29.91 842 24.86 4.2 39.5 30 -12 10.3
16:05 1013 29.91 843 24.89 4.1 39.3 30 -12 10.4
16:10 1013 29.91 843 24.89 4.1 39.3 30 -12 10.4
16:15 1013 29.91 843 24.89 4.1 39.3 30 -12.1 10.3
16:20 1013 29.91 843 24.89 4.1 39.4 30 -12 10.4
16:25 1013 29.91 843 24.89 4.2 39.5 30 -11.8 10.7
16:30 1013 29.91 843 24.89 4.3 39.8 30 -11.8 10.8
16:35 1013 29.91 843 24.89 4.4 39.9 30 -11.9 10.6
16:40 1014 29.94 843 24.89 4.4 39.8 31 -11.5 11.3
16:45 1014 29.94 843 24.89 4.3 39.7 31 -11.6 11.2
16:50 1014 29.94 843 24.89 4.2 39.5 30 -11.7 10.9
16:55 1014 29.94 843 24.89 4.1 39.5 31 -11.5 11.4
17:00 1014 29.94 843 24.89 4.1 39.3 31 -11.7 10.9
17:05 1014 29.94 843 24.89 4 39.3 32 -11.4 11.5
17:10 1014 29.94 843 24.89 4.1 39.3 31 -11.7 11
17:15 1014 29.94 843 24.89 4.1 39.4 31 -11.7 10.9
17:20 1014 29.94 843 24.89 4.1 39.3 31 -11.5 11.4
17:25 1014 29.94 843 24.89 4.1 39.4 31 -11.4 11.4
17:30 1014 29.94 844 24.92 4.1 39.4 31 -11.4 11.5
17:35 1014 29.94 844 24.92 4 39.1 32 -11.3 11.7
17:40 1014 29.94 844 24.92 3.8 38.8 33 -11.1 12
17:45 1014 29.94 844 24.92 3.7 38.7 33 -11.3 11.6
17:50 1014 29.94 844 24.92 3.7 38.6 32 -11.4 11.4
17:55 1014 29.94 844 24.92 3.6 38.5 33 -11.3 11.7
18:00 1015 29.97 844 24.92 3.5 38.2 34 -11.2 11.9
18:05 1015 29.97 844 24.92 3.4 38.2 33 -11.3 11.6
18:10 1015 29.97 844 24.92 3.4 38 34 -11.2 11.8
18:15 1015 29.97 844 24.92 3.2 37.8 34 -11 12.2
18:20 1015 29.97 844 24.92 3.1 37.5 35 -10.8 12.5
18:25 1015 29.97 844 24.92 2.9 37.2 36 -10.8 12.6
18:30 1015 29.97 844 24.92 2.8 37 36 -11 12.1
18:35 1015 29.97 844 24.92 2.7 36.9 35 -11.2 11.9
18:40 1015 29.97 844 24.92 2.8 37 36 -10.9 12.4
18:45 1015 29.97 844 24.92 2.7 36.8 36 -11 12.3
18:50 1015 29.97 844 24.92 2.6 36.7 36 -11 12.3
18:55 1015 29.97 844 24.92 2.6 36.6 36 -11.2 11.9
19:00 1015 29.97 844 24.92 2.7 36.9 36 -11.1 12.1
19:05 1015 29.97 844 24.92 2.6 36.7 36 -11 12.2
19:10 1015 29.97 844 24.92 2.6 36.6 34 -11.9 10.6
19:15 1015 29.97 844 24.92 2.8 37 35 -11.1 12
19:20 1015 29.97 844 24.92 2.7 36.8 35 -11.3 11.6
19:25 1015 29.97 844 24.92 2.5 36.6 37 -10.8 12.6
19:30 1015 29.97 844 24.92 2.3 36.1 36 -11.3 11.7
19:35 1015 29.97 844 24.92 2.3 36.2 37 -11 12.1
19:40 1015 29.97 844 24.92 2.1 35.8 37 -11 12.2
19:45 1015 29.97 844 24.92 2 35.6 37 -11.2 11.9
19:50 1015 29.97 844 24.92 1.9 35.5 37 -11.2 11.8
19:55 1015 29.97 844 24.92 1.9 35.4 38 -11.1 12
20:00 1015 29.97 844 24.92 1.6 34.9 39 -10.7 12.7
20:05 1015 29.97 844 24.92 1.3 34.3 40 -10.9 12.4
20:10 1015 29.97 844 24.92 1.1 34 40 -11 12.1
20:15 1015 29.97 844 24.92 0.9 33.6 42 -10.8 12.6
20:20 1015 29.97 844 24.92 0.6 33.1 43 -10.6 13
20:25 1015 29.97 844 24.92 0.5 32.9 44 -10.5 13.1
20:30 1015 29.97 844 24.92 0.4 32.8 42 -11 12.2
20:35 1015 29.97 844 24.92 0.8 33.4 41 -11.1 12.1
20:40 1015 29.97 844 24.92 0.6 33.2 45 -10.1 13.8
20:45 1015 29.97 844 24.92 0.1 32.2 45 -10.6 13
20:50 1015 29.97 844 24.92 0.1 32.2 45 -10.4 13.2
20:55 1015 29.97 844 24.92 -0.1 31.8 46 -10.4 13.3
21:00 1015 29.97 844 24.92 -0.2 31.7 45 -10.8 12.5
21:05 1015 29.97 844 24.92 0.2 32.3 45 -10.5 13.2
21:10 1015 29.97 844 24.92 0 32 45 -10.7 12.7
21:15 1015 29.97 844 24.92 0.1 32.3 44 -10.7 12.7
21:20 1015 29.97 844 24.92 -0 32 44 -10.8 12.6
21:25 1015 29.97 844 24.92 -0.2 31.6 46 -10.4 13.3
21:30 1015 29.97 844 24.92 -0.6 30.9 47 -10.5 13
21:35 1015 29.97 844 24.92 -0.7 30.7 47 -10.7 12.8
21:40 1015 29.97 844 24.92 -0.5 31.1 45 -10.9 12.3
21:45 1015 29.97 844 24.92 -0.3 31.5 45 -10.8 12.5
21:50 1015 29.97 844 24.92 -0.2 31.7 45 -10.7 12.7
21:55 1015 29.97 844 24.92 0 32.1 43 -11.2 11.9
22:00 1015 29.97 844 24.92 0.6 33.1 42 -11 12.2
22:05 1015 29.97 844 24.92 0.7 33.3 42 -10.8 12.6
22:10 1015 29.97 844 24.92 0.6 33 43 -10.7 12.8
22:15 1015 29.97 844 24.92 0.5 32.8 43 -10.6 12.9
22:20 1015 29.97 844 24.92 0.3 32.5 44 -10.6 13
22:25 1015 29.97 844 24.92 0.2 32.4 45 -10.4 13.3
22:30 1015 29.97 844 24.92 0 32 46 -10.3 13.5
22:35 1015 29.97 844 24.92 -0.2 31.7 46 -10.4 13.3
22:40 1015 29.97 844 24.92 -0.1 31.8 46 -10.3 13.4
22:45 1015 29.97 844 24.92 -0.1 31.7 47 -10.3 13.5
22:50 1015 29.97 844 24.92 -0.3 31.5 47 -10.3 13.4
22:55 1015 29.97 844 24.92 -0.2 31.7 47 -10.2 13.6
23:00 1015 29.97 844 24.92 -0.3 31.4 47 -10.2 13.6
23:05 1015 29.97 844 24.92 -0.3 31.4 47 -10.3 13.5
23:10 1015 29.97 844 24.92 -0.3 31.5 47 -10.3 13.4
23:15 1015 29.97 844 24.92 -0.6 30.9 48 -10.4 13.3
23:20 1015 29.97 844 24.92 -0.9 30.3 48 -10.7 12.8
23:25 1015 29.97 844 24.92 -0.6 30.8 47 -10.6 12.9
23:30 1015 29.97 844 24.92 -0.7 30.7 48 -10.5 13.1
23:35 1015 29.97 844 24.92 -1 30.3 49 -10.4 13.2
23:40 1015 29.97 844 24.92 -1.3 29.6 50 -10.4 13.4
23:45 1015 29.97 844 24.92 -1.6 29 50 -10.6 12.9
23:50 1015 29.97 844 24.92 -1.5 29.3 50 -10.7 12.7
23:55 1015 29.97 844 24.92 -1.3 29.6 49 -10.8 12.6
24:00 1015 29.97 844 24.92 -1.4 29.5 49 -10.7 12.8